メインページ
METAR-TAF:

METAR-TAF

空港 :

ジブラルタル, ジブラルタル

ジブラルタル国際空港

緯度: 36-09N, 経度: 005-21W, 海抜: 5m

現時点の気象観測

当レポートは37分前の02:50(UTC)に作成
西/南西の風 5kt
気温 10°C
湿度 93%
気圧 1024 hPa
視程10km以上

METAR: LXGB 170250Z AUTO 24005KT 9999 // NCD 10/09 Q1024

時間: 04:27 (03:27 UTC)

予報

当レポートは13時間50分前の13:37(UTC)に作成
予報は16日の 15時(UTC)から 16日の 22時(UTC)まで有効
の風 4kt
視程10km以上
高度2500ftの雲はほとんどない

TAF: LXGB 161337Z 1615/1622 10004KT 9999 FEW025

4,000以上の空港の気象観測と天気予報(METAR報とTAF報)

利用可能な観測所は地図上に黄色い丸と赤い丸で示す。

丸の上にカーソルを重ねると観測所名を参照できる。

次にクリックすると気象観測と天気予報を参照できる。

マップの切り替え:黒色「×」印の緑ボタンをクリックして拡大、「-」印の緑ボタンをクリックして縮小、緑色の三角印をクリックして隣りの地図に切り替え


METAR-TAF: